sensor_id;sensor_type;location;lat;lon;timestamp;P1;durP1;ratioP1;P2;durP2;ratioP2
71360;SDS011;59166;48.908;1.870;2023-06-26T00:01:55;9.07;;;2.60;;
71360;SDS011;59166;48.908;1.870;2023-06-26T00:06:57;8.60;;;2.57;;
71360;SDS011;59166;48.908;1.870;2023-06-26T00:11:58;7.57;;;2.43;;
71360;SDS011;59166;48.908;1.870;2023-06-26T00:16:58;9.97;;;2.63;;
71360;SDS011;59166;48.908;1.870;2023-06-26T00:22:00;8.03;;;2.50;;
71360;SDS011;59166;48.908;1.870;2023-06-26T00:27:01;9.15;;;2.80;;
71360;SDS011;59166;48.908;1.870;2023-06-26T00:32:02;7.33;;;2.47;;
71360;SDS011;59166;48.908;1.870;2023-06-26T00:37:04;8.70;;;2.70;;
71360;SDS011;59166;48.908;1.870;2023-06-26T00:42:05;9.20;;;2.63;;
71360;SDS011;59166;48.908;1.870;2023-06-26T00:47:06;9.57;;;2.70;;
71360;SDS011;59166;48.908;1.870;2023-06-26T00:52:16;7.68;;;2.45;;
71360;SDS011;59166;48.908;1.870;2023-06-26T00:57:17;7.72;;;2.20;;
71360;SDS011;59166;48.908;1.870;2023-06-26T01:02:18;8.03;;;2.37;;
71360;SDS011;59166;48.908;1.870;2023-06-26T01:07:20;8.10;;;2.60;;
71360;SDS011;59166;48.908;1.870;2023-06-26T01:12:22;9.82;;;2.60;;
71360;SDS011;59166;48.908;1.870;2023-06-26T01:17:23;8.95;;;2.30;;
71360;SDS011;59166;48.908;1.870;2023-06-26T01:22:27;9.37;;;2.20;;
71360;SDS011;59166;48.908;1.870;2023-06-26T01:27:33;9.93;;;2.55;;
71360;SDS011;59166;48.908;1.870;2023-06-26T01:32:34;12.13;;;2.20;;
71360;SDS011;59166;48.908;1.870;2023-06-26T01:37:36;11.07;;;2.40;;
71360;SDS011;59166;48.908;1.870;2023-06-26T01:42:38;12.48;;;2.15;;
71360;SDS011;59166;48.908;1.870;2023-06-26T01:47:40;10.13;;;2.37;;
71360;SDS011;59166;48.908;1.870;2023-06-26T01:52:45;9.20;;;2.10;;
71360;SDS011;59166;48.908;1.870;2023-06-26T01:57:59;9.40;;;2.03;;
71360;SDS011;59166;48.908;1.870;2023-06-26T02:03:00;13.33;;;2.50;;
71360;SDS011;59166;48.908;1.870;2023-06-26T02:08:00;10.90;;;2.03;;
71360;SDS011;59166;48.908;1.870;2023-06-26T02:13:02;13.23;;;2.40;;
71360;SDS011;59166;48.908;1.870;2023-06-26T02:18:03;13.07;;;2.67;;
71360;SDS011;59166;48.908;1.870;2023-06-26T02:23:04;10.00;;;2.27;;
71360;SDS011;59166;48.908;1.870;2023-06-26T02:28:06;10.90;;;2.22;;
71360;SDS011;59166;48.908;1.870;2023-06-26T02:33:06;11.87;;;2.50;;
71360;SDS011;59166;48.908;1.870;2023-06-26T02:38:07;13.27;;;2.20;;
71360;SDS011;59166;48.908;1.870;2023-06-26T02:43:09;14.00;;;2.60;;
71360;SDS011;59166;48.908;1.870;2023-06-26T02:48:09;8.83;;;2.50;;
71360;SDS011;59166;48.908;1.870;2023-06-26T02:53:10;11.33;;;2.70;;
71360;SDS011;59166;48.908;1.870;2023-06-26T02:58:12;10.93;;;2.37;;
71360;SDS011;59166;48.908;1.870;2023-06-26T03:03:13;13.23;;;2.67;;
71360;SDS011;59166;48.908;1.870;2023-06-26T03:08:13;10.20;;;2.60;;
71360;SDS011;59166;48.908;1.870;2023-06-26T03:13:15;12.88;;;2.60;;
71360;SDS011;59166;48.908;1.870;2023-06-26T03:18:16;12.07;;;2.40;;
71360;SDS011;59166;48.908;1.870;2023-06-26T03:23:17;14.47;;;2.87;;
71360;SDS011;59166;48.908;1.870;2023-06-26T03:28:19;13.87;;;3.20;;
71360;SDS011;59166;48.908;1.870;2023-06-26T03:33:19;10.80;;;2.40;;
71360;SDS011;59166;48.908;1.870;2023-06-26T03:38:21;12.40;;;2.93;;
71360;SDS011;59166;48.908;1.870;2023-06-26T03:43:23;11.37;;;2.90;;
71360;SDS011;59166;48.908;1.870;2023-06-26T03:48:24;12.57;;;2.80;;
71360;SDS011;59166;48.908;1.870;2023-06-26T03:53:24;13.80;;;3.10;;
71360;SDS011;59166;48.908;1.870;2023-06-26T03:58:26;10.80;;;2.60;;
71360;SDS011;59166;48.908;1.870;2023-06-26T04:03:27;9.87;;;2.43;;
71360;SDS011;59166;48.908;1.870;2023-06-26T04:08:27;12.27;;;2.70;;
71360;SDS011;59166;48.908;1.870;2023-06-26T04:13:29;12.17;;;2.70;;
71360;SDS011;59166;48.908;1.870;2023-06-26T04:18:30;10.68;;;2.75;;
71360;SDS011;59166;48.908;1.870;2023-06-26T04:23:31;10.10;;;3.10;;
71360;SDS011;59166;48.908;1.870;2023-06-26T04:28:33;11.80;;;2.47;;
71360;SDS011;59166;48.908;1.870;2023-06-26T04:33:34;13.60;;;2.55;;
71360;SDS011;59166;48.908;1.870;2023-06-26T04:38:35;12.13;;;2.90;;
71360;SDS011;59166;48.908;1.870;2023-06-26T04:43:37;12.33;;;3.10;;
71360;SDS011;59166;48.908;1.870;2023-06-26T04:48:37;11.68;;;2.63;;
71360;SDS011;59166;48.908;1.870;2023-06-26T04:53:38;13.40;;;2.77;;
71360;SDS011;59166;48.908;1.870;2023-06-26T04:58:40;11.20;;;2.53;;
71360;SDS011;59166;48.908;1.870;2023-06-26T05:03:40;13.70;;;2.75;;
71360;SDS011;59166;48.908;1.870;2023-06-26T05:08:41;10.43;;;2.80;;
71360;SDS011;59166;48.908;1.870;2023-06-26T05:13:43;9.30;;;2.70;;
71360;SDS011;59166;48.908;1.870;2023-06-26T05:18:44;12.10;;;2.75;;
71360;SDS011;59166;48.908;1.870;2023-06-26T05:23:44;10.23;;;2.73;;
71360;SDS011;59166;48.908;1.870;2023-06-26T05:28:48;10.77;;;2.80;;
71360;SDS011;59166;48.908;1.870;2023-06-26T05:33:49;11.20;;;3.00;;
71360;SDS011;59166;48.908;1.870;2023-06-26T05:38:52;10.70;;;2.80;;
71360;SDS011;59166;48.908;1.870;2023-06-26T05:43:55;12.40;;;3.22;;
71360;SDS011;59166;48.908;1.870;2023-06-26T05:48:55;13.35;;;3.05;;
71360;SDS011;59166;48.908;1.870;2023-06-26T05:53:56;10.73;;;2.93;;
71360;SDS011;59166;48.908;1.870;2023-06-26T05:58:59;10.00;;;3.22;;
71360;SDS011;59166;48.908;1.870;2023-06-26T06:04:01;10.40;;;2.77;;
71360;SDS011;59166;48.908;1.870;2023-06-26T06:09:01;13.27;;;3.40;;
71360;SDS011;59166;48.908;1.870;2023-06-26T06:14:03;11.53;;;2.87;;
71360;SDS011;59166;48.908;1.870;2023-06-26T06:19:04;11.82;;;2.83;;
71360;SDS011;59166;48.908;1.870;2023-06-26T06:24:05;13.63;;;3.37;;
71360;SDS011;59166;48.908;1.870;2023-06-26T06:29:07;12.73;;;3.40;;
71360;SDS011;59166;48.908;1.870;2023-06-26T06:34:08;10.93;;;2.85;;
71360;SDS011;59166;48.908;1.870;2023-06-26T06:39:08;12.43;;;3.10;;
71360;SDS011;59166;48.908;1.870;2023-06-26T06:44:10;12.20;;;3.20;;
71360;SDS011;59166;48.908;1.870;2023-06-26T06:49:11;13.20;;;3.40;;
71360;SDS011;59166;48.908;1.870;2023-06-26T06:54:12;10.47;;;3.50;;
71360;SDS011;59166;48.908;1.870;2023-06-26T06:59:14;10.10;;;3.20;;
71360;SDS011;59166;48.908;1.870;2023-06-26T07:04:14;10.53;;;2.93;;
71360;SDS011;59166;48.908;1.870;2023-06-26T07:09:15;10.38;;;3.35;;
71360;SDS011;59166;48.908;1.870;2023-06-26T07:14:17;8.80;;;3.37;;
71360;SDS011;59166;48.908;1.870;2023-06-26T07:19:18;11.27;;;3.08;;
71360;SDS011;59166;48.908;1.870;2023-06-26T07:24:19;11.63;;;3.13;;
71360;SDS011;59166;48.908;1.870;2023-06-26T07:29:21;10.77;;;3.08;;
71360;SDS011;59166;48.908;1.870;2023-06-26T07:34:22;12.53;;;3.43;;
71360;SDS011;59166;48.908;1.870;2023-06-26T07:39:22;9.53;;;2.83;;
71360;SDS011;59166;48.908;1.870;2023-06-26T07:44:25;9.50;;;2.77;;
71360;SDS011;59166;48.908;1.870;2023-06-26T07:49:25;10.23;;;2.95;;
71360;SDS011;59166;48.908;1.870;2023-06-26T07:54:26;8.98;;;2.50;;
71360;SDS011;59166;48.908;1.870;2023-06-26T07:59:29;10.20;;;2.80;;
71360;SDS011;59166;48.908;1.870;2023-06-26T08:04:30;9.52;;;2.55;;
71360;SDS011;59166;48.908;1.870;2023-06-26T08:09:31;9.83;;;2.87;;
71360;SDS011;59166;48.908;1.870;2023-06-26T08:14:33;10.07;;;2.77;;
71360;SDS011;59166;48.908;1.870;2023-06-26T08:19:34;9.35;;;2.55;;
71360;SDS011;59166;48.908;1.870;2023-06-26T08:24:34;7.47;;;2.20;;
71360;SDS011;59166;48.908;1.870;2023-06-26T08:29:36;8.43;;;2.60;;
71360;SDS011;59166;48.908;1.870;2023-06-26T08:34:37;8.40;;;2.40;;
71360;SDS011;59166;48.908;1.870;2023-06-26T08:39:38;7.33;;;2.53;;
71360;SDS011;59166;48.908;1.870;2023-06-26T08:44:40;9.43;;;2.30;;
71360;SDS011;59166;48.908;1.870;2023-06-26T08:49:43;10.00;;;2.70;;
71360;SDS011;59166;48.908;1.870;2023-06-26T08:54:50;9.57;;;3.05;;
71360;SDS011;59166;48.908;1.870;2023-06-26T08:59:56;8.47;;;2.70;;
71360;SDS011;59166;48.908;1.870;2023-06-26T09:04:57;8.43;;;2.90;;
71360;SDS011;59166;48.908;1.870;2023-06-26T09:09:58;7.25;;;2.40;;
71360;SDS011;59166;48.908;1.870;2023-06-26T09:15:00;8.53;;;2.60;;
71360;SDS011;59166;48.908;1.870;2023-06-26T09:20:01;7.40;;;2.70;;
71360;SDS011;59166;48.908;1.870;2023-06-26T09:25:02;7.70;;;2.80;;
71360;SDS011;59166;48.908;1.870;2023-06-26T09:30:05;9.82;;;3.00;;
71360;SDS011;59166;48.908;1.870;2023-06-26T09:35:06;8.73;;;2.80;;
71360;SDS011;59166;48.908;1.870;2023-06-26T09:40:08;8.60;;;2.40;;
71360;SDS011;59166;48.908;1.870;2023-06-26T09:45:14;7.47;;;2.67;;
71360;SDS011;59166;48.908;1.870;2023-06-26T09:50:21;9.30;;;2.90;;
71360;SDS011;59166;48.908;1.870;2023-06-26T09:55:22;9.23;;;2.83;;
71360;SDS011;59166;48.908;1.870;2023-06-26T10:00:24;7.70;;;2.70;;
71360;SDS011;59166;48.908;1.870;2023-06-26T10:05:25;8.40;;;2.50;;
71360;SDS011;59166;48.908;1.870;2023-06-26T10:10:26;6.45;;;2.40;;
71360;SDS011;59166;48.908;1.870;2023-06-26T10:15:29;6.53;;;2.30;;
71360;SDS011;59166;48.908;1.870;2023-06-26T10:20:31;10.70;;;2.40;;
71360;SDS011;59166;48.908;1.870;2023-06-26T10:25:32;10.90;;;2.60;;
71360;SDS011;59166;48.908;1.870;2023-06-26T10:30:38;9.17;;;2.30;;
71360;SDS011;59166;48.908;1.870;2023-06-26T10:35:43;8.25;;;2.38;;
71360;SDS011;59166;48.908;1.870;2023-06-26T10:40:44;7.88;;;2.20;;
71360;SDS011;59166;48.908;1.870;2023-06-26T10:45:47;8.30;;;2.27;;
71360;SDS011;59166;48.908;1.870;2023-06-26T10:50:49;9.43;;;2.10;;
71360;SDS011;59166;48.908;1.870;2023-06-26T10:55:51;8.65;;;2.15;;
71360;SDS011;59166;48.908;1.870;2023-06-26T11:01:16;6.63;;;2.30;;
71360;SDS011;59166;48.908;1.870;2023-06-26T11:06:18;7.47;;;2.20;;
71360;SDS011;59166;48.908;1.870;2023-06-26T11:11:20;7.63;;;2.00;;
71360;SDS011;59166;48.908;1.870;2023-06-26T11:16:23;7.40;;;1.77;;
71360;SDS011;59166;48.908;1.870;2023-06-26T11:21:25;6.10;;;1.70;;
71360;SDS011;59166;48.908;1.870;2023-06-26T11:26:27;8.35;;;2.22;;
71360;SDS011;59166;48.908;1.870;2023-06-26T11:31:29;8.80;;;1.97;;
71360;SDS011;59166;48.908;1.870;2023-06-26T11:36:31;6.88;;;1.80;;
71360;SDS011;59166;48.908;1.870;2023-06-26T11:41:32;6.70;;;1.70;;
71360;SDS011;59166;48.908;1.870;2023-06-26T11:46:36;6.73;;;1.77;;
71360;SDS011;59166;48.908;1.870;2023-06-26T11:51:37;5.70;;;1.67;;
71360;SDS011;59166;48.908;1.870;2023-06-26T11:56:38;6.73;;;1.77;;
71360;SDS011;59166;48.908;1.870;2023-06-26T12:01:41;6.50;;;1.70;;
71360;SDS011;59166;48.908;1.870;2023-06-26T12:06:44;6.80;;;1.70;;
71360;SDS011;59166;48.908;1.870;2023-06-26T12:11:47;12.47;;;2.10;;
71360;SDS011;59166;48.908;1.870;2023-06-26T12:16:52;7.90;;;1.85;;
71360;SDS011;59166;48.908;1.870;2023-06-26T12:21:53;7.40;;;1.90;;
71360;SDS011;59166;48.908;1.870;2023-06-26T12:26:54;6.43;;;1.53;;
71360;SDS011;59166;48.908;1.870;2023-06-26T12:31:56;6.88;;;1.65;;
71360;SDS011;59166;48.908;1.870;2023-06-26T12:36:59;9.93;;;2.00;;
71360;SDS011;59166;48.908;1.870;2023-06-26T12:42:01;8.32;;;1.80;;
71360;SDS011;59166;48.908;1.870;2023-06-26T12:47:03;6.87;;;1.57;;
71360;SDS011;59166;48.908;1.870;2023-06-26T12:52:05;5.82;;;1.65;;
71360;SDS011;59166;48.908;1.870;2023-06-26T12:57:06;6.57;;;1.70;;
71360;SDS011;59166;48.908;1.870;2023-06-26T13:02:08;6.75;;;1.70;;
71360;SDS011;59166;48.908;1.870;2023-06-26T13:07:10;7.77;;;1.70;;
71360;SDS011;59166;48.908;1.870;2023-06-26T13:12:10;5.72;;;1.67;;
71360;SDS011;59166;48.908;1.870;2023-06-26T13:17:12;6.63;;;1.50;;
71360;SDS011;59166;48.908;1.870;2023-06-26T13:22:13;4.93;;;1.40;;
71360;SDS011;59166;48.908;1.870;2023-06-26T13:27:14;7.53;;;1.70;;
71360;SDS011;59166;48.908;1.870;2023-06-26T13:32:16;6.15;;;1.65;;
71360;SDS011;59166;48.908;1.870;2023-06-26T13:37:16;4.80;;;1.37;;
71360;SDS011;59166;48.908;1.870;2023-06-26T13:42:17;5.63;;;1.63;;
71360;SDS011;59166;48.908;1.870;2023-06-26T13:47:19;6.40;;;1.50;;
71360;SDS011;59166;48.908;1.870;2023-06-26T13:52:20;6.90;;;1.90;;
71360;SDS011;59166;48.908;1.870;2023-06-26T13:57:21;6.00;;;1.40;;
71360;SDS011;59166;48.908;1.870;2023-06-26T14:02:23;6.00;;;1.60;;
71360;SDS011;59166;48.908;1.870;2023-06-26T14:07:24;5.80;;;1.73;;
71360;SDS011;59166;48.908;1.870;2023-06-26T14:12:24;6.22;;;1.70;;
71360;SDS011;59166;48.908;1.870;2023-06-26T14:17:26;6.00;;;1.60;;
71360;SDS011;59166;48.908;1.870;2023-06-26T14:22:27;6.25;;;1.60;;
71360;SDS011;59166;48.908;1.870;2023-06-26T14:27:27;7.80;;;1.60;;
71360;SDS011;59166;48.908;1.870;2023-06-26T14:32:29;19.10;;;2.27;;
71360;SDS011;59166;48.908;1.870;2023-06-26T14:37:30;6.93;;;1.80;;
71360;SDS011;59166;48.908;1.870;2023-06-26T14:42:31;6.53;;;1.60;;
71360;SDS011;59166;48.908;1.870;2023-06-26T14:47:33;6.00;;;1.50;;
71360;SDS011;59166;48.908;1.870;2023-06-26T14:52:34;7.45;;;1.80;;
71360;SDS011;59166;48.908;1.870;2023-06-26T14:57:34;6.10;;;1.67;;
71360;SDS011;59166;48.908;1.870;2023-06-26T15:02:36;7.43;;;1.73;;
71360;SDS011;59166;48.908;1.870;2023-06-26T15:07:37;6.65;;;2.30;;
71360;SDS011;59166;48.908;1.870;2023-06-26T15:12:38;9.07;;;4.20;;
71360;SDS011;59166;48.908;1.870;2023-06-26T15:17:40;9.90;;;4.00;;
71360;SDS011;59166;48.908;1.870;2023-06-26T15:22:40;7.27;;;2.40;;
71360;SDS011;59166;48.908;1.870;2023-06-26T15:27:41;7.05;;;1.80;;
71360;SDS011;59166;48.908;1.870;2023-06-26T15:32:43;6.23;;;1.70;;
71360;SDS011;59166;48.908;1.870;2023-06-26T15:37:44;9.65;;;1.73;;
71360;SDS011;59166;48.908;1.870;2023-06-26T15:42:45;6.07;;;1.60;;
71360;SDS011;59166;48.908;1.870;2023-06-26T15:47:47;4.85;;;1.45;;
71360;SDS011;59166;48.908;1.870;2023-06-26T15:52:49;11.57;;;1.70;;
71360;SDS011;59166;48.908;1.870;2023-06-26T15:57:49;5.33;;;1.50;;
71360;SDS011;59166;48.908;1.870;2023-06-26T16:02:51;5.37;;;1.40;;
71360;SDS011;59166;48.908;1.870;2023-06-26T16:07:52;7.28;;;1.77;;
71360;SDS011;59166;48.908;1.870;2023-06-26T16:12:52;7.07;;;1.60;;
71360;SDS011;59166;48.908;1.870;2023-06-26T16:17:54;7.20;;;2.10;;
71360;SDS011;59166;48.908;1.870;2023-06-26T16:22:55;7.45;;;1.63;;
71360;SDS011;59166;48.908;1.870;2023-06-26T16:27:56;6.93;;;1.90;;
71360;SDS011;59166;48.908;1.870;2023-06-26T16:32:58;8.07;;;1.90;;
71360;SDS011;59166;48.908;1.870;2023-06-26T16:37:58;9.00;;;1.57;;
71360;SDS011;59166;48.908;1.870;2023-06-26T16:42:59;7.10;;;1.75;;
71360;SDS011;59166;48.908;1.870;2023-06-26T16:48:01;8.17;;;1.70;;
71360;SDS011;59166;48.908;1.870;2023-06-26T16:53:02;9.15;;;1.90;;
71360;SDS011;59166;48.908;1.870;2023-06-26T16:58:02;6.40;;;1.70;;
71360;SDS011;59166;48.908;1.870;2023-06-26T17:03:04;8.47;;;1.60;;
71360;SDS011;59166;48.908;1.870;2023-06-26T17:08:05;8.55;;;1.45;;
71360;SDS011;59166;48.908;1.870;2023-06-26T17:13:05;7.07;;;1.60;;
71360;SDS011;59166;48.908;1.870;2023-06-26T17:18:08;8.98;;;2.03;;
71360;SDS011;59166;48.908;1.870;2023-06-26T17:23:08;7.20;;;1.90;;
71360;SDS011;59166;48.908;1.870;2023-06-26T17:28:09;7.55;;;1.63;;
71360;SDS011;59166;48.908;1.870;2023-06-26T17:33:11;9.73;;;1.90;;
71360;SDS011;59166;48.908;1.870;2023-06-26T17:38:11;8.85;;;1.92;;
71360;SDS011;59166;48.908;1.870;2023-06-26T17:43:12;6.83;;;1.40;;
71360;SDS011;59166;48.908;1.870;2023-06-26T17:48:14;7.50;;;1.83;;
71360;SDS011;59166;48.908;1.870;2023-06-26T17:53:15;5.88;;;1.85;;
71360;SDS011;59166;48.908;1.870;2023-06-26T17:58:15;8.10;;;1.90;;
71360;SDS011;59166;48.908;1.870;2023-06-26T18:03:17;8.00;;;1.80;;
71360;SDS011;59166;48.908;1.870;2023-06-26T18:08:18;8.63;;;2.10;;
71360;SDS011;59166;48.908;1.870;2023-06-26T18:13:19;8.40;;;2.00;;
71360;SDS011;59166;48.908;1.870;2023-06-26T18:18:21;7.20;;;2.10;;
71360;SDS011;59166;48.908;1.870;2023-06-26T18:23:21;8.18;;;2.15;;
71360;SDS011;59166;48.908;1.870;2023-06-26T18:28:22;10.13;;;1.90;;
71360;SDS011;59166;48.908;1.870;2023-06-26T18:33:24;7.53;;;2.13;;
71360;SDS011;59166;48.908;1.870;2023-06-26T18:38:25;9.07;;;2.05;;
71360;SDS011;59166;48.908;1.870;2023-06-26T18:43:25;7.20;;;1.80;;
71360;SDS011;59166;48.908;1.870;2023-06-26T18:48:27;8.43;;;1.85;;
71360;SDS011;59166;48.908;1.870;2023-06-26T18:53:28;8.57;;;1.90;;
71360;SDS011;59166;48.908;1.870;2023-06-26T18:58:28;8.00;;;1.70;;
71360;SDS011;59166;48.908;1.870;2023-06-26T19:03:30;7.63;;;1.90;;
71360;SDS011;59166;48.908;1.870;2023-06-26T19:08:31;8.63;;;2.10;;
71360;SDS011;59166;48.908;1.870;2023-06-26T19:13:32;7.97;;;1.93;;
71360;SDS011;59166;48.908;1.870;2023-06-26T19:18:34;9.67;;;2.07;;
71360;SDS011;59166;48.908;1.870;2023-06-26T19:23:36;9.18;;;1.88;;
71360;SDS011;59166;48.908;1.870;2023-06-26T19:28:36;8.88;;;1.70;;
71360;SDS011;59166;48.908;1.870;2023-06-26T19:33:39;9.43;;;1.90;;
71360;SDS011;59166;48.908;1.870;2023-06-26T19:38:40;6.22;;;1.65;;
71360;SDS011;59166;48.908;1.870;2023-06-26T19:43:40;8.20;;;1.90;;
71360;SDS011;59166;48.908;1.870;2023-06-26T19:48:42;6.20;;;1.60;;
71360;SDS011;59166;48.908;1.870;2023-06-26T19:53:45;6.47;;;1.70;;
71360;SDS011;59166;48.908;1.870;2023-06-26T19:58:48;7.53;;;1.77;;
71360;SDS011;59166;48.908;1.870;2023-06-26T20:03:50;8.00;;;1.90;;
71360;SDS011;59166;48.908;1.870;2023-06-26T20:08:51;8.15;;;1.70;;
71360;SDS011;59166;48.908;1.870;2023-06-26T20:13:52;8.20;;;1.60;;
71360;SDS011;59166;48.908;1.870;2023-06-26T20:18:54;5.95;;;1.73;;
71360;SDS011;59166;48.908;1.870;2023-06-26T20:23:54;8.00;;;1.77;;
71360;SDS011;59166;48.908;1.870;2023-06-26T20:28:55;9.80;;;1.70;;
71360;SDS011;59166;48.908;1.870;2023-06-26T20:33:57;8.37;;;1.60;;
71360;SDS011;59166;48.908;1.870;2023-06-26T20:38:58;7.13;;;1.70;;
71360;SDS011;59166;48.908;1.870;2023-06-26T20:43:59;6.13;;;1.53;;
71360;SDS011;59166;48.908;1.870;2023-06-26T20:49:02;7.00;;;1.58;;
71360;SDS011;59166;48.908;1.870;2023-06-26T20:54:03;7.70;;;1.80;;
71360;SDS011;59166;48.908;1.870;2023-06-26T20:59:04;6.32;;;1.70;;
71360;SDS011;59166;48.908;1.870;2023-06-26T21:04:06;6.57;;;1.50;;
71360;SDS011;59166;48.908;1.870;2023-06-26T21:09:07;6.22;;;1.60;;
71360;SDS011;59166;48.908;1.870;2023-06-26T21:14:09;6.00;;;1.60;;
71360;SDS011;59166;48.908;1.870;2023-06-26T21:19:12;6.80;;;1.63;;
71360;SDS011;59166;48.908;1.870;2023-06-26T21:24:12;7.13;;;1.65;;
71360;SDS011;59166;48.908;1.870;2023-06-26T21:29:13;6.90;;;1.90;;
71360;SDS011;59166;48.908;1.870;2023-06-26T21:34:16;8.52;;;1.80;;
71360;SDS011;59166;48.908;1.870;2023-06-26T21:39:17;6.82;;;1.67;;
71360;SDS011;59166;48.908;1.870;2023-06-26T21:44:18;7.80;;;1.60;;
71360;SDS011;59166;48.908;1.870;2023-06-26T21:49:20;8.15;;;1.90;;
71360;SDS011;59166;48.908;1.870;2023-06-26T21:54:21;10.20;;;1.97;;
71360;SDS011;59166;48.908;1.870;2023-06-26T21:59:22;6.78;;;1.70;;
71360;SDS011;59166;48.908;1.870;2023-06-26T22:04:24;7.20;;;1.63;;
71360;SDS011;59166;48.908;1.870;2023-06-26T22:09:24;7.35;;;1.80;;
71360;SDS011;59166;48.908;1.870;2023-06-26T22:14:25;8.37;;;1.90;;
71360;SDS011;59166;48.908;1.870;2023-06-26T22:19:30;7.43;;;1.63;;
71360;SDS011;59166;48.908;1.870;2023-06-26T22:24:31;6.57;;;1.60;;
71360;SDS011;59166;48.908;1.870;2023-06-26T22:29:41;8.23;;;1.80;;
71360;SDS011;59166;48.908;1.870;2023-06-26T22:34:46;8.10;;;1.65;;
71360;SDS011;59166;48.908;1.870;2023-06-26T22:39:47;7.10;;;1.90;;
71360;SDS011;59166;48.908;1.870;2023-06-26T22:44:47;7.00;;;1.60;;
71360;SDS011;59166;48.908;1.870;2023-06-26T22:49:49;8.23;;;1.80;;
71360;SDS011;59166;48.908;1.870;2023-06-26T22:54:50;8.75;;;1.80;;
71360;SDS011;59166;48.908;1.870;2023-06-26T22:59:50;7.20;;;1.90;;
71360;SDS011;59166;48.908;1.870;2023-06-26T23:04:52;8.43;;;1.80;;
71360;SDS011;59166;48.908;1.870;2023-06-26T23:09:53;8.77;;;1.80;;
71360;SDS011;59166;48.908;1.870;2023-06-26T23:14:54;7.10;;;1.70;;
71360;SDS011;59166;48.908;1.870;2023-06-26T23:19:56;7.07;;;1.90;;
71360;SDS011;59166;48.908;1.870;2023-06-26T23:24:57;6.07;;;1.70;;
71360;SDS011;59166;48.908;1.870;2023-06-26T23:29:58;6.27;;;1.73;;
71360;SDS011;59166;48.908;1.870;2023-06-26T23:35:00;6.33;;;1.60;;
71360;SDS011;59166;48.908;1.870;2023-06-26T23:40:01;6.97;;;1.75;;
71360;SDS011;59166;48.908;1.870;2023-06-26T23:45:01;6.10;;;1.70;;
71360;SDS011;59166;48.908;1.870;2023-06-26T23:50:05;7.88;;;1.70;;
71360;SDS011;59166;48.908;1.870;2023-06-26T23:55:06;6.83;;;1.63;;
